sensor_id;sensor_type;location;lat;lon;timestamp;P1;durP1;ratioP1;P2;durP2;ratioP2
9986;SDS011;5033;46.310;11.214;2023-03-12T00:01:33;1.40;;;1.40;;
9986;SDS011;5033;46.310;11.214;2023-03-12T00:04:00;1.38;;;1.27;;
9986;SDS011;5033;46.310;11.214;2023-03-12T00:06:28;1.30;;;1.30;;
9986;SDS011;5033;46.310;11.214;2023-03-12T00:08:55;1.23;;;1.23;;
9986;SDS011;5033;46.310;11.214;2023-03-12T00:11:26;1.30;;;1.30;;
9986;SDS011;5033;46.310;11.214;2023-03-12T00:13:55;1.45;;;1.35;;
9986;SDS011;5033;46.310;11.214;2023-03-12T00:16:22;1.20;;;1.20;;
9986;SDS011;5033;46.310;11.214;2023-03-12T00:18:52;1.27;;;1.17;;
9986;SDS011;5033;46.310;11.214;2023-03-12T00:21:20;1.40;;;1.40;;
9986;SDS011;5033;46.310;11.214;2023-03-12T00:23:48;1.17;;;1.17;;
9986;SDS011;5033;46.310;11.214;2023-03-12T00:26:17;1.85;;;1.60;;
9986;SDS011;5033;46.310;11.214;2023-03-12T00:28:45;1.25;;;1.25;;
9986;SDS011;5033;46.310;11.214;2023-03-12T00:31:14;1.20;;;1.20;;
9986;SDS011;5033;46.310;11.214;2023-03-12T00:33:43;1.23;;;1.23;;
9986;SDS011;5033;46.310;11.214;2023-03-12T00:36:11;1.08;;;1.08;;
9986;SDS011;5033;46.310;11.214;2023-03-12T00:38:38;1.42;;;1.30;;
9986;SDS011;5033;46.310;11.214;2023-03-12T00:41:05;1.10;;;1.10;;
9986;SDS011;5033;46.310;11.214;2023-03-12T00:43:32;1.10;;;1.10;;
9986;SDS011;5033;46.310;11.214;2023-03-12T00:45:59;1.30;;;1.30;;
9986;SDS011;5033;46.310;11.214;2023-03-12T00:48:26;1.77;;;1.33;;
9986;SDS011;5033;46.310;11.214;2023-03-12T00:50:54;1.10;;;1.10;;
9986;SDS011;5033;46.310;11.214;2023-03-12T00:53:22;1.23;;;1.23;;
9986;SDS011;5033;46.310;11.214;2023-03-12T00:55:49;1.40;;;1.40;;
9986;SDS011;5033;46.310;11.214;2023-03-12T00:58:16;1.13;;;1.13;;
9986;SDS011;5033;46.310;11.214;2023-03-12T01:00:43;1.30;;;1.30;;
9986;SDS011;5033;46.310;11.214;2023-03-12T01:03:10;1.45;;;1.38;;
9986;SDS011;5033;46.310;11.214;2023-03-12T01:05:37;1.40;;;1.40;;
9986;SDS011;5033;46.310;11.214;2023-03-12T01:08:05;1.30;;;1.30;;
9986;SDS011;5033;46.310;11.214;2023-03-12T01:10:34;1.20;;;1.20;;
9986;SDS011;5033;46.310;11.214;2023-03-12T01:13:01;1.15;;;1.15;;
9986;SDS011;5033;46.310;11.214;2023-03-12T01:15:29;1.40;;;1.40;;
9986;SDS011;5033;46.310;11.214;2023-03-12T01:17:56;1.30;;;1.30;;
9986;SDS011;5033;46.310;11.214;2023-03-12T01:20:23;1.30;;;1.30;;
9986;SDS011;5033;46.310;11.214;2023-03-12T01:22:50;1.38;;;1.38;;
9986;SDS011;5033;46.310;11.214;2023-03-12T01:25:17;1.02;;;1.02;;
9986;SDS011;5033;46.310;11.214;2023-03-12T01:27:46;1.38;;;1.38;;
9986;SDS011;5033;46.310;11.214;2023-03-12T01:30:13;1.60;;;1.60;;
9986;SDS011;5033;46.310;11.214;2023-03-12T01:32:41;1.40;;;1.40;;
9986;SDS011;5033;46.310;11.214;2023-03-12T01:35:08;1.45;;;1.35;;
9986;SDS011;5033;46.310;11.214;2023-03-12T01:37:35;1.42;;;1.35;;
9986;SDS011;5033;46.310;11.214;2023-03-12T01:40:02;1.20;;;1.20;;
9986;SDS011;5033;46.310;11.214;2023-03-12T01:42:29;1.40;;;1.40;;
9986;SDS011;5033;46.310;11.214;2023-03-12T01:44:59;1.30;;;1.30;;
9986;SDS011;5033;46.310;11.214;2023-03-12T01:47:28;1.10;;;1.10;;
9986;SDS011;5033;46.310;11.214;2023-03-12T01:49:57;1.23;;;1.23;;
9986;SDS011;5033;46.310;11.214;2023-03-12T01:52:26;1.30;;;1.30;;
9986;SDS011;5033;46.310;11.214;2023-03-12T01:54:56;1.45;;;1.45;;
9986;SDS011;5033;46.310;11.214;2023-03-12T01:57:29;1.33;;;1.33;;
9986;SDS011;5033;46.310;11.214;2023-03-12T02:00:02;1.48;;;1.42;;
9986;SDS011;5033;46.310;11.214;2023-03-12T02:02:33;1.08;;;1.05;;
9986;SDS011;5033;46.310;11.214;2023-03-12T02:05:04;1.40;;;1.40;;
9986;SDS011;5033;46.310;11.214;2023-03-12T02:07:36;1.60;;;1.50;;
9986;SDS011;5033;46.310;11.214;2023-03-12T02:10:04;1.42;;;1.35;;
9986;SDS011;5033;46.310;11.214;2023-03-12T02:12:31;1.33;;;1.33;;
9986;SDS011;5033;46.310;11.214;2023-03-12T02:14:58;1.58;;;1.50;;
9986;SDS011;5033;46.310;11.214;2023-03-12T02:17:27;1.40;;;1.40;;
9986;SDS011;5033;46.310;11.214;2023-03-12T02:19:56;1.40;;;1.30;;
9986;SDS011;5033;46.310;11.214;2023-03-12T02:22:32;1.52;;;1.50;;
9986;SDS011;5033;46.310;11.214;2023-03-12T02:25:01;1.33;;;1.33;;
9986;SDS011;5033;46.310;11.214;2023-03-12T02:27:39;1.58;;;1.48;;
9986;SDS011;5033;46.310;11.214;2023-03-12T02:30:07;1.27;;;1.27;;
9986;SDS011;5033;46.310;11.214;2023-03-12T02:32:39;1.33;;;1.33;;
9986;SDS011;5033;46.310;11.214;2023-03-12T02:35:07;1.50;;;1.50;;
9986;SDS011;5033;46.310;11.214;2023-03-12T02:37:34;1.15;;;1.15;;
9986;SDS011;5033;46.310;11.214;2023-03-12T02:40:02;1.27;;;1.27;;
9986;SDS011;5033;46.310;11.214;2023-03-12T02:42:35;1.40;;;1.40;;
9986;SDS011;5033;46.310;11.214;2023-03-12T02:45:03;1.63;;;1.52;;
9986;SDS011;5033;46.310;11.214;2023-03-12T02:47:31;1.23;;;1.23;;
9986;SDS011;5033;46.310;11.214;2023-03-12T02:49:58;1.60;;;1.50;;
9986;SDS011;5033;46.310;11.214;2023-03-12T02:52:25;1.70;;;1.70;;
9986;SDS011;5033;46.310;11.214;2023-03-12T02:54:54;1.77;;;1.50;;
9986;SDS011;5033;46.310;11.214;2023-03-12T02:57:21;1.35;;;1.35;;
9986;SDS011;5033;46.310;11.214;2023-03-12T02:59:50;1.30;;;1.30;;
9986;SDS011;5033;46.310;11.214;2023-03-12T03:02:17;1.55;;;1.50;;
9986;SDS011;5033;46.310;11.214;2023-03-12T03:04:44;1.25;;;1.25;;
9986;SDS011;5033;46.310;11.214;2023-03-12T03:07:11;1.48;;;1.48;;
9986;SDS011;5033;46.310;11.214;2023-03-12T03:09:38;1.23;;;1.23;;
9986;SDS011;5033;46.310;11.214;2023-03-12T03:12:06;1.50;;;1.50;;
9986;SDS011;5033;46.310;11.214;2023-03-12T03:14:33;1.58;;;1.50;;
9986;SDS011;5033;46.310;11.214;2023-03-12T03:17:02;1.50;;;1.50;;
9986;SDS011;5033;46.310;11.214;2023-03-12T03:19:29;1.38;;;1.38;;
9986;SDS011;5033;46.310;11.214;2023-03-12T03:21:56;1.45;;;1.45;;
9986;SDS011;5033;46.310;11.214;2023-03-12T03:24:23;1.30;;;1.30;;
9986;SDS011;5033;46.310;11.214;2023-03-12T03:26:50;1.15;;;1.15;;
9986;SDS011;5033;46.310;11.214;2023-03-12T03:29:17;1.58;;;1.48;;
9986;SDS011;5033;46.310;11.214;2023-03-12T03:31:44;1.40;;;1.40;;
9986;SDS011;5033;46.310;11.214;2023-03-12T03:34:13;1.40;;;1.30;;
9986;SDS011;5033;46.310;11.214;2023-03-12T03:36:40;1.90;;;1.70;;
9986;SDS011;5033;46.310;11.214;2023-03-12T03:39:07;1.52;;;1.52;;
9986;SDS011;5033;46.310;11.214;2023-03-12T03:41:34;1.50;;;1.50;;
9986;SDS011;5033;46.310;11.214;2023-03-12T03:44:01;1.40;;;1.40;;
9986;SDS011;5033;46.310;11.214;2023-03-12T03:46:29;1.30;;;1.30;;
9986;SDS011;5033;46.310;11.214;2023-03-12T03:48:56;1.40;;;1.40;;
9986;SDS011;5033;46.310;11.214;2023-03-12T03:51:25;1.52;;;1.52;;
9986;SDS011;5033;46.310;11.214;2023-03-12T03:53:52;1.35;;;1.35;;
9986;SDS011;5033;46.310;11.214;2023-03-12T03:56:19;1.35;;;1.27;;
9986;SDS011;5033;46.310;11.214;2023-03-12T03:58:47;1.63;;;1.60;;
9986;SDS011;5033;46.310;11.214;2023-03-12T04:01:14;1.73;;;1.63;;
9986;SDS011;5033;46.310;11.214;2023-03-12T04:03:40;1.50;;;1.50;;
9986;SDS011;5033;46.310;11.214;2023-03-12T04:06:08;1.60;;;1.50;;
9986;SDS011;5033;46.310;11.214;2023-03-12T04:08:37;1.10;;;1.10;;
9986;SDS011;5033;46.310;11.214;2023-03-12T04:11:07;1.50;;;1.50;;
9986;SDS011;5033;46.310;11.214;2023-03-12T04:13:37;1.42;;;1.42;;
9986;SDS011;5033;46.310;11.214;2023-03-12T04:16:05;1.30;;;1.30;;
9986;SDS011;5033;46.310;11.214;2023-03-12T04:18:32;1.40;;;1.40;;
9986;SDS011;5033;46.310;11.214;2023-03-12T04:21:00;1.58;;;1.58;;
9986;SDS011;5033;46.310;11.214;2023-03-12T04:23:27;1.58;;;1.58;;
9986;SDS011;5033;46.310;11.214;2023-03-12T04:25:56;1.60;;;1.60;;
9986;SDS011;5033;46.310;11.214;2023-03-12T04:28:23;1.40;;;1.40;;
9986;SDS011;5033;46.310;11.214;2023-03-12T04:30:53;1.65;;;1.55;;
9986;SDS011;5033;46.310;11.214;2023-03-12T04:33:20;1.30;;;1.30;;
9986;SDS011;5033;46.310;11.214;2023-03-12T04:35:49;1.65;;;1.65;;
9986;SDS011;5033;46.310;11.214;2023-03-12T04:38:16;1.60;;;1.60;;
9986;SDS011;5033;46.310;11.214;2023-03-12T04:40:43;1.95;;;1.85;;
9986;SDS011;5033;46.310;11.214;2023-03-12T04:43:12;1.50;;;1.50;;
9986;SDS011;5033;46.310;11.214;2023-03-12T04:45:40;1.52;;;1.42;;
9986;SDS011;5033;46.310;11.214;2023-03-12T04:48:07;1.70;;;1.70;;
9986;SDS011;5033;46.310;11.214;2023-03-12T04:50:34;1.70;;;1.60;;
9986;SDS011;5033;46.310;11.214;2023-03-12T04:53:01;1.73;;;1.65;;
9986;SDS011;5033;46.310;11.214;2023-03-12T04:55:28;1.63;;;1.60;;
9986;SDS011;5033;46.310;11.214;2023-03-12T04:57:55;1.65;;;1.55;;
9986;SDS011;5033;46.310;11.214;2023-03-12T05:00:24;2.10;;;2.00;;
9986;SDS011;5033;46.310;11.214;2023-03-12T05:02:51;2.00;;;1.90;;
9986;SDS011;5033;46.310;11.214;2023-03-12T05:05:19;2.22;;;2.13;;
9986;SDS011;5033;46.310;11.214;2023-03-12T05:07:46;2.10;;;1.90;;
9986;SDS011;5033;46.310;11.214;2023-03-12T05:10:13;2.22;;;2.13;;
9986;SDS011;5033;46.310;11.214;2023-03-12T05:12:40;2.00;;;1.90;;
9986;SDS011;5033;46.310;11.214;2023-03-12T05:15:08;2.15;;;2.00;;
9986;SDS011;5033;46.310;11.214;2023-03-12T05:17:36;2.33;;;2.13;;
9986;SDS011;5033;46.310;11.214;2023-03-12T05:20:04;2.30;;;2.10;;
9986;SDS011;5033;46.310;11.214;2023-03-12T05:22:31;2.13;;;2.00;;
9986;SDS011;5033;46.310;11.214;2023-03-12T05:24:58;2.53;;;2.40;;
9986;SDS011;5033;46.310;11.214;2023-03-12T05:27:25;2.80;;;2.60;;
9986;SDS011;5033;46.310;11.214;2023-03-12T05:29:52;2.90;;;2.40;;
9986;SDS011;5033;46.310;11.214;2023-03-12T05:32:19;2.50;;;2.30;;
9986;SDS011;5033;46.310;11.214;2023-03-12T05:34:48;2.30;;;2.10;;
9986;SDS011;5033;46.310;11.214;2023-03-12T05:37:15;2.35;;;2.15;;
9986;SDS011;5033;46.310;11.214;2023-03-12T05:39:42;2.28;;;2.17;;
9986;SDS011;5033;46.310;11.214;2023-03-12T05:42:10;1.75;;;1.65;;
9986;SDS011;5033;46.310;11.214;2023-03-12T05:44:38;2.17;;;2.08;;
9986;SDS011;5033;46.310;11.214;2023-03-12T05:47:05;1.95;;;1.85;;
9986;SDS011;5033;46.310;11.214;2023-03-12T05:49:32;2.40;;;2.20;;
9986;SDS011;5033;46.310;11.214;2023-03-12T05:52:00;2.08;;;1.98;;
9986;SDS011;5033;46.310;11.214;2023-03-12T05:54:28;1.85;;;1.75;;
9986;SDS011;5033;46.310;11.214;2023-03-12T05:56:55;2.45;;;2.30;;
9986;SDS011;5033;46.310;11.214;2023-03-12T05:59:22;2.20;;;2.10;;
9986;SDS011;5033;46.310;11.214;2023-03-12T06:01:49;1.98;;;1.88;;
9986;SDS011;5033;46.310;11.214;2023-03-12T06:04:16;2.00;;;1.90;;
9986;SDS011;5033;46.310;11.214;2023-03-12T06:06:43;1.80;;;1.70;;
9986;SDS011;5033;46.310;11.214;2023-03-12T06:09:11;1.80;;;1.70;;
9986;SDS011;5033;46.310;11.214;2023-03-12T06:11:39;1.83;;;1.73;;
9986;SDS011;5033;46.310;11.214;2023-03-12T06:14:06;1.95;;;1.85;;
9986;SDS011;5033;46.310;11.214;2023-03-12T06:16:33;2.10;;;2.00;;
9986;SDS011;5033;46.310;11.214;2023-03-12T06:19:00;2.78;;;2.58;;
9986;SDS011;5033;46.310;11.214;2023-03-12T06:21:29;2.58;;;2.22;;
9986;SDS011;5033;46.310;11.214;2023-03-12T06:23:57;2.47;;;2.30;;
9986;SDS011;5033;46.310;11.214;2023-03-12T06:26:26;2.30;;;2.20;;
9986;SDS011;5033;46.310;11.214;2023-03-12T06:28:54;3.40;;;2.30;;
9986;SDS011;5033;46.310;11.214;2023-03-12T06:31:21;2.67;;;2.53;;
9986;SDS011;5033;46.310;11.214;2023-03-12T06:33:48;2.40;;;2.25;;
9986;SDS011;5033;46.310;11.214;2023-03-12T06:36:18;2.38;;;2.22;;
9986;SDS011;5033;46.310;11.214;2023-03-12T06:38:45;2.40;;;2.30;;
9986;SDS011;5033;46.310;11.214;2023-03-12T06:41:12;2.45;;;2.33;;
9986;SDS011;5033;46.310;11.214;2023-03-12T06:43:42;3.10;;;2.90;;
9986;SDS011;5033;46.310;11.214;2023-03-12T06:46:10;2.55;;;2.35;;
9986;SDS011;5033;46.310;11.214;2023-03-12T06:48:39;2.10;;;2.00;;
9986;SDS011;5033;46.310;11.214;2023-03-12T06:51:06;2.05;;;1.95;;
9986;SDS011;5033;46.310;11.214;2023-03-12T06:53:34;2.00;;;1.90;;
9986;SDS011;5033;46.310;11.214;2023-03-12T06:56:01;1.80;;;1.70;;
9986;SDS011;5033;46.310;11.214;2023-03-12T06:58:28;2.10;;;2.00;;
9986;SDS011;5033;46.310;11.214;2023-03-12T07:00:57;1.45;;;1.40;;
9986;SDS011;5033;46.310;11.214;2023-03-12T07:03:24;1.67;;;1.58;;
9986;SDS011;5033;46.310;11.214;2023-03-12T07:05:51;1.40;;;1.40;;
9986;SDS011;5033;46.310;11.214;2023-03-12T07:08:21;1.33;;;1.33;;
9986;SDS011;5033;46.310;11.214;2023-03-12T07:10:49;1.48;;;1.38;;
9986;SDS011;5033;46.310;11.214;2023-03-12T07:13:16;1.70;;;1.60;;
9986;SDS011;5033;46.310;11.214;2023-03-12T07:15:43;1.42;;;1.42;;
9986;SDS011;5033;46.310;11.214;2023-03-12T07:18:12;1.40;;;1.40;;
9986;SDS011;5033;46.310;11.214;2023-03-12T07:20:40;1.73;;;1.63;;
9986;SDS011;5033;46.310;11.214;2023-03-12T07:23:08;1.50;;;1.40;;
9986;SDS011;5033;46.310;11.214;2023-03-12T07:25:36;1.40;;;1.30;;
9986;SDS011;5033;46.310;11.214;2023-03-12T07:28:04;1.75;;;1.65;;
9986;SDS011;5033;46.310;11.214;2023-03-12T07:30:31;1.40;;;1.30;;
9986;SDS011;5033;46.310;11.214;2023-03-12T07:32:59;1.20;;;1.20;;
9986;SDS011;5033;46.310;11.214;2023-03-12T07:35:28;1.45;;;1.38;;
9986;SDS011;5033;46.310;11.214;2023-03-12T07:37:55;3.15;;;1.48;;
9986;SDS011;5033;46.310;11.214;2023-03-12T07:40:23;3.20;;;1.58;;
9986;SDS011;5033;46.310;11.214;2023-03-12T07:42:50;1.30;;;1.30;;
9986;SDS011;5033;46.310;11.214;2023-03-12T07:45:18;1.30;;;1.20;;
9986;SDS011;5033;46.310;11.214;2023-03-12T07:47:46;1.30;;;1.20;;
9986;SDS011;5033;46.310;11.214;2023-03-12T07:50:13;2.08;;;1.10;;
9986;SDS011;5033;46.310;11.214;2023-03-12T07:52:42;1.20;;;1.20;;
9986;SDS011;5033;46.310;11.214;2023-03-12T07:55:10;2.33;;;1.40;;
9986;SDS011;5033;46.310;11.214;2023-03-12T07:57:37;1.13;;;1.10;;
9986;SDS011;5033;46.310;11.214;2023-03-12T08:00:05;1.40;;;1.30;;
9986;SDS011;5033;46.310;11.214;2023-03-12T08:02:34;1.60;;;1.13;;
9986;SDS011;5033;46.310;11.214;2023-03-12T08:05:01;1.05;;;1.05;;
9986;SDS011;5033;46.310;11.214;2023-03-12T08:07:29;1.35;;;1.25;;
9986;SDS011;5033;46.310;11.214;2023-03-12T08:10:00;1.00;;;1.00;;
9986;SDS011;5033;46.310;11.214;2023-03-12T08:12:30;1.35;;;1.25;;
9986;SDS011;5033;46.310;11.214;2023-03-12T08:14:57;1.48;;;1.38;;
9986;SDS011;5033;46.310;11.214;2023-03-12T08:17:24;1.02;;;1.02;;
9986;SDS011;5033;46.310;11.214;2023-03-12T08:19:51;1.15;;;1.10;;
9986;SDS011;5033;46.310;11.214;2023-03-12T08:22:18;1.15;;;1.05;;
9986;SDS011;5033;46.310;11.214;2023-03-12T08:24:45;1.05;;;1.05;;
9986;SDS011;5033;46.310;11.214;2023-03-12T08:27:14;1.42;;;1.33;;
9986;SDS011;5033;46.310;11.214;2023-03-12T08:29:41;1.40;;;1.30;;
9986;SDS011;5033;46.310;11.214;2023-03-12T08:32:08;1.20;;;1.10;;
9986;SDS011;5033;46.310;11.214;2023-03-12T08:34:36;0.90;;;0.90;;
9986;SDS011;5033;46.310;11.214;2023-03-12T08:37:03;1.40;;;1.30;;
9986;SDS011;5033;46.310;11.214;2023-03-12T08:39:31;1.20;;;1.13;;
9986;SDS011;5033;46.310;11.214;2023-03-12T08:41:58;1.60;;;1.23;;
9986;SDS011;5033;46.310;11.214;2023-03-12T08:44:27;1.20;;;1.10;;
9986;SDS011;5033;46.310;11.214;2023-03-12T08:46:54;1.30;;;1.20;;
9986;SDS011;5033;46.310;11.214;2023-03-12T08:49:21;1.63;;;1.20;;
9986;SDS011;5033;46.310;11.214;2023-03-12T08:51:49;1.33;;;1.15;;
9986;SDS011;5033;46.310;11.214;2023-03-12T08:54:16;1.40;;;1.25;;
9986;SDS011;5033;46.310;11.214;2023-03-12T08:56:44;1.10;;;1.10;;
9986;SDS011;5033;46.310;11.214;2023-03-12T08:59:16;1.48;;;1.38;;
9986;SDS011;5033;46.310;11.214;2023-03-12T09:01:45;1.60;;;1.50;;
9986;SDS011;5033;46.310;11.214;2023-03-12T09:04:13;2.90;;;1.50;;
9986;SDS011;5033;46.310;11.214;2023-03-12T09:06:40;2.88;;;1.38;;
9986;SDS011;5033;46.310;11.214;2023-03-12T09:09:07;2.53;;;1.70;;
9986;SDS011;5033;46.310;11.214;2023-03-12T09:11:35;1.80;;;1.70;;
9986;SDS011;5033;46.310;11.214;2023-03-12T09:14:03;1.85;;;1.75;;
9986;SDS011;5033;46.310;11.214;2023-03-12T09:16:31;2.40;;;1.80;;
9986;SDS011;5033;46.310;11.214;2023-03-12T09:18:59;2.33;;;2.13;;
9986;SDS011;5033;46.310;11.214;2023-03-12T09:21:27;2.40;;;2.20;;
9986;SDS011;5033;46.310;11.214;2023-03-12T09:23:54;2.17;;;1.98;;
9986;SDS011;5033;46.310;11.214;2023-03-12T09:26:21;4.07;;;2.22;;
9986;SDS011;5033;46.310;11.214;2023-03-12T09:28:48;3.17;;;2.20;;
9986;SDS011;5033;46.310;11.214;2023-03-12T09:31:15;3.25;;;2.42;;
9986;SDS011;5033;46.310;11.214;2023-03-12T09:33:43;3.35;;;2.33;;
9986;SDS011;5033;46.310;11.214;2023-03-12T09:36:11;3.03;;;2.75;;
9986;SDS011;5033;46.310;11.214;2023-03-12T09:38:38;3.58;;;3.08;;
9986;SDS011;5033;46.310;11.214;2023-03-12T09:41:10;5.88;;;3.50;;
9986;SDS011;5033;46.310;11.214;2023-03-12T09:43:44;4.28;;;3.10;;
9986;SDS011;5033;46.310;11.214;2023-03-12T09:46:17;5.68;;;4.10;;
9986;SDS011;5033;46.310;11.214;2023-03-12T09:48:49;9.02;;;4.68;;
9986;SDS011;5033;46.310;11.214;2023-03-12T09:51:24;6.10;;;4.65;;
9986;SDS011;5033;46.310;11.214;2023-03-12T09:53:57;5.45;;;4.75;;
9986;SDS011;5033;46.310;11.214;2023-03-12T09:56:26;7.57;;;4.80;;
9986;SDS011;5033;46.310;11.214;2023-03-12T09:58:53;7.82;;;4.55;;
9986;SDS011;5033;46.310;11.214;2023-03-12T10:01:31;7.90;;;5.43;;
9986;SDS011;5033;46.310;11.214;2023-03-12T10:04:06;8.00;;;5.07;;
9986;SDS011;5033;46.310;11.214;2023-03-12T10:06:49;9.38;;;5.13;;
9986;SDS011;5033;46.310;11.214;2023-03-12T10:09:25;8.18;;;5.38;;
9986;SDS011;5033;46.310;11.214;2023-03-12T10:12:05;6.15;;;4.75;;
9986;SDS011;5033;46.310;11.214;2023-03-12T10:14:41;9.15;;;5.57;;
9986;SDS011;5033;46.310;11.214;2023-03-12T10:17:31;9.60;;;5.57;;
9986;SDS011;5033;46.310;11.214;2023-03-12T10:20:18;7.60;;;5.20;;
9986;SDS011;5033;46.310;11.214;2023-03-12T10:22:55;8.13;;;5.50;;
9986;SDS011;5033;46.310;11.214;2023-03-12T10:25:29;9.63;;;5.57;;
9986;SDS011;5033;46.310;11.214;2023-03-12T10:28:05;7.55;;;5.15;;
9986;SDS011;5033;46.310;11.214;2023-03-12T10:30:40;8.07;;;5.90;;
9986;SDS011;5033;46.310;11.214;2023-03-12T10:33:13;8.52;;;5.75;;
9986;SDS011;5033;46.310;11.214;2023-03-12T10:35:45;7.78;;;5.55;;
9986;SDS011;5033;46.310;11.214;2023-03-12T10:38:15;13.07;;;6.47;;
9986;SDS011;5033;46.310;11.214;2023-03-12T10:40:45;8.13;;;5.00;;
9986;SDS011;5033;46.310;11.214;2023-03-12T10:43:13;8.80;;;6.43;;
9986;SDS011;5033;46.310;11.214;2023-03-12T10:45:42;8.07;;;5.85;;
9986;SDS011;5033;46.310;11.214;2023-03-12T10:48:17;7.97;;;6.35;;
9986;SDS011;5033;46.310;11.214;2023-03-12T10:50:58;7.75;;;6.20;;
9986;SDS011;5033;46.310;11.214;2023-03-12T10:53:29;9.40;;;6.63;;
9986;SDS011;5033;46.310;11.214;2023-03-12T10:55:58;8.93;;;6.72;;
9986;SDS011;5033;46.310;11.214;2023-03-12T10:58:31;7.60;;;6.05;;
9986;SDS011;5033;46.310;11.214;2023-03-12T11:01:03;7.53;;;6.05;;
9986;SDS011;5033;46.310;11.214;2023-03-12T11:03:31;10.02;;;6.53;;
9986;SDS011;5033;46.310;11.214;2023-03-12T11:05:59;6.75;;;5.25;;
9986;SDS011;5033;46.310;11.214;2023-03-12T11:08:29;9.40;;;6.18;;
9986;SDS011;5033;46.310;11.214;2023-03-12T11:10:57;10.02;;;5.68;;
9986;SDS011;5033;46.310;11.214;2023-03-12T11:13:26;8.10;;;5.57;;
9986;SDS011;5033;46.310;11.214;2023-03-12T11:15:56;6.38;;;5.70;;
9986;SDS011;5033;46.310;11.214;2023-03-12T11:18:28;7.40;;;5.18;;
9986;SDS011;5033;46.310;11.214;2023-03-12T11:21:10;8.93;;;5.03;;
9986;SDS011;5033;46.310;11.214;2023-03-12T11:23:44;5.88;;;4.47;;
9986;SDS011;5033;46.310;11.214;2023-03-12T11:26:29;7.53;;;4.93;;
9986;SDS011;5033;46.310;11.214;2023-03-12T11:29:00;8.05;;;4.97;;
9986;SDS011;5033;46.310;11.214;2023-03-12T11:31:30;8.68;;;5.45;;
9986;SDS011;5033;46.310;11.214;2023-03-12T11:34:02;8.23;;;5.85;;
9986;SDS011;5033;46.310;11.214;2023-03-12T11:36:38;10.32;;;4.80;;
9986;SDS011;5033;46.310;11.214;2023-03-12T11:39:15;6.47;;;5.25;;
9986;SDS011;5033;46.310;11.214;2023-03-12T11:41:58;5.60;;;4.57;;
9986;SDS011;5033;46.310;11.214;2023-03-12T11:44:33;6.50;;;5.03;;
9986;SDS011;5033;46.310;11.214;2023-03-12T11:47:17;6.32;;;4.88;;
9986;SDS011;5033;46.310;11.214;2023-03-12T11:52:56;7.65;;;4.43;;
9986;SDS011;5033;46.310;11.214;2023-03-12T11:55:49;6.10;;;4.55;;
9986;SDS011;5033;46.310;11.214;2023-03-12T11:58:28;6.32;;;4.80;;
9986;SDS011;5033;46.310;11.214;2023-03-12T12:01:05;6.28;;;4.53;;
9986;SDS011;5033;46.310;11.214;2023-03-12T12:03:54;8.30;;;4.30;;
9986;SDS011;5033;46.310;11.214;2023-03-12T12:06:47;5.72;;;4.07;;
9986;SDS011;5033;46.310;11.214;2023-03-12T12:09:24;5.03;;;3.83;;
9986;SDS011;5033;46.310;11.214;2023-03-12T12:17:48;6.45;;;4.60;;
9986;SDS011;5033;46.310;11.214;2023-03-12T12:20:27;5.95;;;3.95;;
9986;SDS011;5033;46.310;11.214;2023-03-12T12:23:14;3.75;;;3.40;;
9986;SDS011;5033;46.310;11.214;2023-03-12T12:25:48;6.60;;;3.67;;
9986;SDS011;5033;46.310;11.214;2023-03-12T12:28:31;4.13;;;3.15;;
9986;SDS011;5033;46.310;11.214;2023-03-12T12:31:17;5.55;;;3.58;;
9986;SDS011;5033;46.310;11.214;2023-03-12T12:34:14;5.70;;;3.70;;
9986;SDS011;5033;46.310;11.214;2023-03-12T12:37:26;6.50;;;4.20;;
9986;SDS011;5033;46.310;11.214;2023-03-12T12:40:02;4.80;;;3.58;;
9986;SDS011;5033;46.310;11.214;2023-03-12T12:42:46;6.85;;;3.45;;
9986;SDS011;5033;46.310;11.214;2023-03-12T12:45:20;8.77;;;3.67;;
9986;SDS011;5033;46.310;11.214;2023-03-12T12:47:50;4.82;;;3.58;;
9986;SDS011;5033;46.310;11.214;2023-03-12T12:50:21;5.97;;;3.30;;
9986;SDS011;5033;46.310;11.214;2023-03-12T12:52:53;7.85;;;3.25;;
9986;SDS011;5033;46.310;11.214;2023-03-12T12:55:29;5.15;;;3.60;;
9986;SDS011;5033;46.310;11.214;2023-03-12T12:57:59;7.93;;;3.97;;
9986;SDS011;5033;46.310;11.214;2023-03-12T13:03:26;7.75;;;4.03;;
9986;SDS011;5033;46.310;11.214;2023-03-12T13:05:55;5.05;;;2.97;;
9986;SDS011;5033;46.310;11.214;2023-03-12T13:08:33;4.85;;;2.97;;
9986;SDS011;5033;46.310;11.214;2023-03-12T13:11:25;8.25;;;3.47;;
9986;SDS011;5033;46.310;11.214;2023-03-12T13:14:11;5.75;;;3.22;;
9986;SDS011;5033;46.310;11.214;2023-03-12T13:17:04;4.70;;;3.50;;
9986;SDS011;5033;46.310;11.214;2023-03-12T13:19:50;6.95;;;3.67;;
9986;SDS011;5033;46.310;11.214;2023-03-12T13:22:23;5.38;;;3.30;;
9986;SDS011;5033;46.310;11.214;2023-03-12T13:24:59;4.13;;;2.70;;
9986;SDS011;5033;46.310;11.214;2023-03-12T13:27:40;4.05;;;2.88;;
9986;SDS011;5033;46.310;11.214;2023-03-12T13:33:14;5.32;;;3.28;;
9986;SDS011;5033;46.310;11.214;2023-03-12T13:35:42;5.68;;;3.63;;
9986;SDS011;5033;46.310;11.214;2023-03-12T13:38:33;4.18;;;2.72;;
9986;SDS011;5033;46.310;11.214;2023-03-12T13:41:03;8.32;;;3.75;;
9986;SDS011;5033;46.310;11.214;2023-03-12T13:43:41;3.63;;;2.67;;
9986;SDS011;5033;46.310;11.214;2023-03-12T13:46:35;7.95;;;2.92;;
9986;SDS011;5033;46.310;11.214;2023-03-12T13:49:11;6.07;;;3.78;;
9986;SDS011;5033;46.310;11.214;2023-03-12T13:54:27;4.05;;;2.80;;
9986;SDS011;5033;46.310;11.214;2023-03-12T13:56:58;4.65;;;2.25;;
9986;SDS011;5033;46.310;11.214;2023-03-12T13:59:29;9.88;;;3.53;;
9986;SDS011;5033;46.310;11.214;2023-03-12T14:02:02;4.93;;;2.95;;
9986;SDS011;5033;46.310;11.214;2023-03-12T14:04:35;4.88;;;2.95;;
9986;SDS011;5033;46.310;11.214;2023-03-12T14:07:18;2.50;;;2.30;;
9986;SDS011;5033;46.310;11.214;2023-03-12T14:09:59;4.18;;;3.40;;
9986;SDS011;5033;46.310;11.214;2023-03-12T14:12:38;4.47;;;2.83;;
9986;SDS011;5033;46.310;11.214;2023-03-12T14:15:19;5.22;;;2.58;;
9986;SDS011;5033;46.310;11.214;2023-03-12T14:17:56;4.05;;;2.83;;
9986;SDS011;5033;46.310;11.214;2023-03-12T14:20:25;8.30;;;2.92;;
9986;SDS011;5033;46.310;11.214;2023-03-12T14:22:54;4.95;;;2.35;;
9986;SDS011;5033;46.310;11.214;2023-03-12T14:25:30;2.63;;;2.40;;
9986;SDS011;5033;46.310;11.214;2023-03-12T14:28:00;3.42;;;2.58;;
9986;SDS011;5033;46.310;11.214;2023-03-12T14:30:32;3.58;;;2.83;;
9986;SDS011;5033;46.310;11.214;2023-03-12T14:33:08;3.33;;;3.03;;
9986;SDS011;5033;46.310;11.214;2023-03-12T14:35:40;3.15;;;2.60;;
9986;SDS011;5033;46.310;11.214;2023-03-12T14:38:12;4.25;;;3.00;;
9986;SDS011;5033;46.310;11.214;2023-03-12T14:40:44;6.25;;;3.00;;
9986;SDS011;5033;46.310;11.214;2023-03-12T14:43:21;3.03;;;2.42;;
9986;SDS011;5033;46.310;11.214;2023-03-12T14:45:52;3.25;;;2.80;;
9986;SDS011;5033;46.310;11.214;2023-03-12T14:48:21;2.88;;;2.58;;
9986;SDS011;5033;46.310;11.214;2023-03-12T14:50:52;3.45;;;3.10;;
9986;SDS011;5033;46.310;11.214;2023-03-12T14:53:21;4.22;;;2.72;;
9986;SDS011;5033;46.310;11.214;2023-03-12T14:55:58;2.85;;;2.00;;
9986;SDS011;5033;46.310;11.214;2023-03-12T14:58:30;3.13;;;2.35;;
9986;SDS011;5033;46.310;11.214;2023-03-12T15:01:00;4.03;;;2.70;;
9986;SDS011;5033;46.310;11.214;2023-03-12T15:03:29;2.30;;;2.10;;
9986;SDS011;5033;46.310;11.214;2023-03-12T15:06:02;3.38;;;2.50;;
9986;SDS011;5033;46.310;11.214;2023-03-12T15:08:29;3.92;;;2.55;;
9986;SDS011;5033;46.310;11.214;2023-03-12T15:11:04;2.95;;;2.13;;
9986;SDS011;5033;46.310;11.214;2023-03-12T15:13:32;2.63;;;2.22;;
9986;SDS011;5033;46.310;11.214;2023-03-12T15:16:05;2.55;;;2.35;;
9986;SDS011;5033;46.310;11.214;2023-03-12T15:18:33;2.83;;;2.35;;
9986;SDS011;5033;46.310;11.214;2023-03-12T15:21:00;3.65;;;2.35;;
9986;SDS011;5033;46.310;11.214;2023-03-12T15:23:28;3.85;;;2.65;;
9986;SDS011;5033;46.310;11.214;2023-03-12T15:26:08;3.72;;;2.20;;
9986;SDS011;5033;46.310;11.214;2023-03-12T15:28:36;2.55;;;2.17;;
9986;SDS011;5033;46.310;11.214;2023-03-12T15:31:07;3.42;;;2.55;;
9986;SDS011;5033;46.310;11.214;2023-03-12T15:33:39;2.83;;;2.28;;
9986;SDS011;5033;46.310;11.214;2023-03-12T15:38:59;2.70;;;2.35;;
9986;SDS011;5033;46.310;11.214;2023-03-12T15:41:33;2.92;;;2.13;;